Main page
METAR-TAF:

METAR-TAF

Airports :

Voronezh International Airport

Voronezh, Russia

latitude: 51-39N, longitude: 039-15E, elevation: 154 m

Current weather observation

The report was made 41 minutes ago, at 02:30 UTC
Wind 8 kt from the East/Southeast
Temperature 1°C
Humidity 100%
Pressure 1014 hPa
Visibility: 3800 m
Overcast at a height of 300 ft
light rain, mist

METAR: UUOO 150230Z 12004MPS 3800 -RA BR OVC003 01/01 Q1014 R12/290145 NOSIG RMK QBB090 QFE747

Time: 06:11 (03:11 UTC)

Forecast

The report was made 1 hour and 11 minutes ago, at 02:00 UTC
Forecast valid from 15 at 03 UTC to 15 at 12 UTC
Wind 12 kt from the East/Southeast
Visibility: 1400 m
Overcast at a height of 200 ft
mist
Temporary
from 15 at 03 UTC to 15 at 06 UTC
Visibility: 0500 m
fog
Becoming
from 15 at 06 UTC to 15 at 08 UTC
Visibility: 3100 m
Overcast at a height of 1100 ft
mist

TAF: UUOO 150200Z 1503/1512 12006MPS 1400 BR OVC002 TEMPO 1503/1506 0500 FG BECMG 1506/1508 3100 BR OVC011

Weather observations and forecasts of more than 4000 airports (METAR and TAF reports).

The available stations are represented by yellow and red dots on the map.

Hover mouse over dot to see the name of the station.

Then click to see weather observations and forecasts.

To change the map : click on the green buttons with a black cross to zoom in, on the green button with a dash to zoom out, or on the green arrows for adjacent maps.


METAR-TAF: